Time;durP1;ratioP1;P1;durP2;ratioP2;P2;SDS_P1;SDS_P2;PMS_P1;PMS_P2;Temp;Humidity;BMP_temperature;BMP_pressure;BME280_temperature;BME280_humidity;BME280_pressure;Samples;Min_cycle;Max_cycle;Signal;HPM_P1;HPM_P2
2020/08/10 00:00:36;;;;;;;5.2;3.1;;;;;;;19.83;75.37891;938.6077;;;;
2020/08/10 00:03:03;;;;;;;4.7;2.7;;;;;;;19.74;75.7832;938.671;;;;
2020/08/10 00:05:28;;;;;;;3.9;2.4;;;;;;;19.62;76.04297;938.606;;;;
2020/08/10 00:07:53;;;;;;;3.4;2.3;;;;;;;19.64;75.84766;938.5589;;;;
2020/08/10 00:10:20;;;;;;;4.5;2.5;;;;;;;19.59;76.1416;938.5831;;;;
2020/08/10 00:12:51;;;;;;;5.1;2.8;;;;;;;19.36;77.08008;938.5875;;;;
2020/08/10 00:15:24;;;;;;;3.2;2.4;;;;;;;19.24;77.74805;938.5482;;;;
2020/08/10 00:17:49;;;;;;;5;2.9;;;;;;;19.28;77.68262;938.4675;;;;
2020/08/10 00:20:14;;;;;;;3;2.2;;;;;;;19.35;77.33398;938.4698;;;;
2020/08/10 00:22:40;;;;;;;7.1;2.7;;;;;;;19.43;76.98926;938.4543;;;;
2020/08/10 00:25:05;;;;;;;8.8;2.9;;;;;;;19.38;77.12891;938.4562;;;;
2020/08/10 00:27:30;;;;;;;3.7;2.4;;;;;;;19.33;77.34277;938.463;;;;
2020/08/10 00:29:55;;;;;;;3.2;2.5;;;;;;;19.33;77.30762;938.4064;;;;
2020/08/10 00:32:21;;;;;;;3.7;2.5;;;;;;;19.29;77.12695;938.3742;;;;
2020/08/10 00:34:46;;;;;;;3.3;2.3;;;;;;;19.3;77.05859;938.3393;;;;
2020/08/10 00:37:12;;;;;;;4.4;2.3;;;;;;;19.19;77.51758;938.3441;;;;
2020/08/10 00:39:37;;;;;;;4.3;2.6;;;;;;;19.11;77.92188;938.3177;;;;
2020/08/10 00:42:02;;;;;;;3.4;2;;;;;;;19.04;78.28223;938.2783;;;;
2020/08/10 00:44:27;;;;;;;3.8;2.2;;;;;;;19.12;78.0752;938.3716;;;;
2020/08/10 00:46:52;;;;;;;4.5;2.8;;;;;;;18.99;78.41211;938.3203;;;;
2020/08/10 00:49:18;;;;;;;2.5;1.9;;;;;;;18.99;78.21582;938.3547;;;;
2020/08/10 00:51:46;;;;;;;4.8;2.7;;;;;;;19.05;78.02734;938.2642;;;;
2020/08/10 00:54:11;;;;;;;4.2;2.6;;;;;;;19.11;77.84082;938.2628;;;;
2020/08/10 00:56:39;;;;;;;3.8;2.2;;;;;;;19.15;77.60254;938.2385;;;;
2020/08/10 00:59:06;;;;;;;3.4;2.5;;;;;;;19.22;77.50977;938.3016;;;;
2020/08/10 01:01:32;;;;;;;4.4;3;;;;;;;19.11;77.60938;938.2756;;;;
2020/08/10 01:04:02;;;;;;;3.6;2.7;;;;;;;19.05;77.89941;938.2553;;;;
2020/08/10 01:06:32;;;;;;;4.8;2.3;;;;;;;19.01;77.91602;938.2673;;;;
2020/08/10 01:09:01;;;;;;;3.9;2.1;;;;;;;18.91;78.42188;938.3156;;;;
2020/08/10 01:11:37;;;;;;;2.7;2.1;;;;;;;18.69;79.46387;938.233;;;;
2020/08/10 01:14:10;;;;;;;2.8;2.1;;;;;;;18.65;79.80664;938.246;;;;
2020/08/10 01:16:36;;;;;;;3.2;2.1;;;;;;;18.62;80.42773;938.2202;;;;
2020/08/10 01:19:07;;;;;;;5;2.2;;;;;;;18.73;79.34277;938.1782;;;;
2020/08/10 01:21:40;;;;;;;4.2;2.6;;;;;;;18.72;79.27246;938.1855;;;;
2020/08/10 01:24:05;;;;;;;5.4;2.9;;;;;;;18.66;79.84277;938.2215;;;;
2020/08/10 01:26:39;;;;;;;4.1;2.4;;;;;;;18.83;79.35059;938.2117;;;;
2020/08/10 01:29:04;;;;;;;2.9;2.1;;;;;;;18.96;78.65332;938.2175;;;;
2020/08/10 01:31:38;;;;;;;4.4;2.3;;;;;;;19.07;78.05371;938.2792;;;;
2020/08/10 01:34:06;;;;;;;5.4;2.5;;;;;;;19.03;78.06934;938.222;;;;
2020/08/10 01:36:37;;;;;;;4.9;2.7;;;;;;;19.05;78.13086;938.2636;;;;
2020/08/10 01:39:02;;;;;;;2.5;2.1;;;;;;;19.15;77.63867;938.2828;;;;
2020/08/10 01:41:34;;;;;;;4.3;2.5;;;;;;;19.12;77.44629;938.2335;;;;
2020/08/10 01:44:01;;;;;;;3.2;1.8;;;;;;;19.05;77.81738;938.2424;;;;
2020/08/10 01:46:30;;;;;;;7.6;2.8;;;;;;;19.02;78.25391;938.2081;;;;
2020/08/10 01:48:56;;;;;;;3.5;2.6;;;;;;;19.04;77.81641;938.1879;;;;
2020/08/10 01:51:28;;;;;;;3.1;2.2;;;;;;;18.88;78.45215;938.1887;;;;
2020/08/10 01:53:54;;;;;;;3.5;2.5;;;;;;;18.7;79.30469;938.1859;;;;
2020/08/10 01:56:19;;;;;;;3.5;2.5;;;;;;;18.6;79.83105;938.2458;;;;
2020/08/10 01:58:44;;;;;;;3.6;2.2;;;;;;;18.61;79.8916;938.2762;;;;
2020/08/10 02:01:16;;;;;;;4.6;2.6;;;;;;;18.55;80.12598;938.3088;;;;
2020/08/10 02:03:47;;;;;;;5.6;2.8;;;;;;;18.54;80.13379;938.2172;;;;
2020/08/10 02:06:12;;;;;;;4.3;3;;;;;;;18.54;80.0293;938.193;;;;
2020/08/10 02:08:45;;;;;;;3.5;2.4;;;;;;;18.49;80.04297;938.1602;;;;
2020/08/10 02:11:17;;;;;;;3.6;2.4;;;;;;;18.48;80.10059;938.195;;;;
2020/08/10 02:13:51;;;;;;;5.1;2.7;;;;;;;18.54;80.13379;938.1978;;;;
2020/08/10 02:16:17;;;;;;;3.3;2.2;;;;;;;18.58;79.88672;938.1986;;;;
2020/08/10 02:18:43;;;;;;;2.9;2.4;;;;;;;18.62;79.66016;938.1816;;;;
2020/08/10 02:21:16;;;;;;;4.8;2.5;;;;;;;18.63;79.30273;938.2553;;;;
2020/08/10 02:23:49;;;;;;;4.5;2.2;;;;;;;18.51;79.59375;938.2887;;;;
2020/08/10 02:26:17;;;;;;;5.2;2.8;;;;;;;18.21;81.37793;938.3014;;;;
2020/08/10 02:28:49;;;;;;;3.9;2.5;;;;;;;18.2;81.58398;938.2736;;;;
2020/08/10 02:31:25;;;;;;;4.6;2.9;;;;;;;18.18;81.58008;938.2594;;;;
2020/08/10 02:33:50;;;;;;;3.7;2.8;;;;;;;18.25;81.28027;938.2098;;;;
2020/08/10 02:36:17;;;;;;;6.6;3.3;;;;;;;18.29;80.99609;938.1365;;;;
2020/08/10 02:38:43;;;;;;;4.6;2.7;;;;;;;17.99;82.62402;938.2523;;;;
2020/08/10 02:41:29;;;;;;;5.4;2.7;;;;;;;18.01;82.47754;938.2051;;;;
2020/08/10 02:43:58;;;;;;;3.4;2.5;;;;;;;18.06;82.10254;938.1594;;;;
2020/08/10 02:46:28;;;;;;;4.9;2.5;;;;;;;18.11;81.82129;938.2028;;;;
2020/08/10 02:48:54;;;;;;;4.6;3;;;;;;;17.99;82.22852;938.088;;;;
2020/08/10 02:51:20;;;;;;;3.6;2.3;;;;;;;18.03;82.13281;938.1398;;;;
2020/08/10 02:53:46;;;;;;;5;3.1;;;;;;;18.05;81.93848;938.1595;;;;
2020/08/10 02:56:11;;;;;;;5.9;3.5;;;;;;;18.07;81.90918;938.1486;;;;
2020/08/10 02:58:37;;;;;;;3.8;2.5;;;;;;;18.06;81.98828;938.1214;;;;
2020/08/10 03:01:02;;;;;;;4.1;2.7;;;;;;;18.05;82.08008;938.1458;;;;
2020/08/10 03:03:27;;;;;;;3.3;2.5;;;;;;;18.01;82.32715;938.0795;;;;
2020/08/10 03:05:57;;;;;;;4.1;2.7;;;;;;;18.02;82.21289;938.1061;;;;
2020/08/10 03:08:22;;;;;;;10.9;2.6;;;;;;;18.13;81.59375;938.0977;;;;
2020/08/10 03:11:00;;;;;;;3.8;2.6;;;;;;;18.04;81.9043;938.0969;;;;
2020/08/10 03:13:26;;;;;;;7.2;2.9;;;;;;;18.04;81.83203;938.1195;;;;
2020/08/10 03:16:02;;;;;;;4.3;2.8;;;;;;;17.91;82.13379;938.1346;;;;
2020/08/10 03:18:32;;;;;;;4.2;3;;;;;;;17.9;82.16699;938.1662;;;;
2020/08/10 03:20:57;;;;;;;2.6;2.1;;;;;;;17.97;81.7627;938.0972;;;;
2020/08/10 03:23:25;;;;;;;10.2;2.7;;;;;;;17.92;81.82227;938.0859;;;;
2020/08/10 03:25:51;;;;;;;3;2.1;;;;;;;17.75;83.0791;938.1227;;;;
2020/08/10 03:28:17;;;;;;;8.2;2.7;;;;;;;17.78;82.82813;938.0627;;;;
2020/08/10 03:30:42;;;;;;;3.7;2;;;;;;;17.86;82.49512;938.1002;;;;
2020/08/10 03:33:08;;;;;;;3.9;2.4;;;;;;;17.93;82.38184;938.0867;;;;
2020/08/10 03:35:33;;;;;;;3.4;2.4;;;;;;;18;81.90527;938.1127;;;;
2020/08/10 03:37:58;;;;;;;6.6;2.5;;;;;;;17.91;82.01953;938.1119;;;;
2020/08/10 03:40:33;;;;;;;4;2.3;;;;;;;17.79;82.97168;938.1244;;;;
2020/08/10 03:43:00;;;;;;;4.9;2.6;;;;;;;17.86;82.50879;938.0123;;;;
2020/08/10 03:45:40;;;;;;;4.1;2;;;;;;;17.86;82.24023;938.0953;;;;
2020/08/10 03:48:05;;;;;;;4.3;2.8;;;;;;;17.85;82.49414;938.048;;;;
2020/08/10 03:50:32;;;;;;;3.8;2.7;;;;;;;17.79;82.53027;938.0631;;;;
2020/08/10 03:53:01;;;;;;;5.7;2.6;;;;;;;17.65;83.38477;938.0913;;;;
2020/08/10 03:55:26;;;;;;;7.1;2.8;;;;;;;17.63;83.66016;938.0917;;;;
2020/08/10 03:57:57;;;;;;;4.8;2.8;;;;;;;17.61;83.58691;938.0265;;;;
2020/08/10 04:02:41;;;;;;;3.1;2.5;;;;;;;17.76;83.05859;938.075;;;;
2020/08/10 04:05:16;;;;;;;6.4;2.8;;;;;;;17.76;83.07031;938.1121;;;;
2020/08/10 04:07:44;;;;;;;4.1;2.5;;;;;;;17.71;83.31543;938.1025;;;;
2020/08/10 04:10:14;;;;;;;4.3;2.3;;;;;;;17.67;83.3418;938.0917;;;;
2020/08/10 04:12:44;;;;;;;6.6;2.9;;;;;;;17.55;83.91016;938.1219;;;;
2020/08/10 04:15:09;;;;;;;3.1;2.3;;;;;;;17.53;84.51172;938.0834;;;;
2020/08/10 04:17:44;;;;;;;6;2.6;;;;;;;17.54;84.41992;938.1292;;;;
2020/08/10 04:20:21;;;;;;;4.2;2.6;;;;;;;17.64;84.02148;938.0938;;;;
2020/08/10 04:22:46;;;;;;;4.1;2.3;;;;;;;17.75;83.38281;938.1589;;;;
2020/08/10 04:25:21;;;;;;;7.6;3.3;;;;;;;17.66;83.46973;938.1523;;;;
2020/08/10 04:27:48;;;;;;;3.4;2.5;;;;;;;17.5;84.06348;938.1443;;;;
2020/08/10 04:30:27;;;;;;;5.5;3;;;;;;;17.29;84.84863;938.117;;;;
2020/08/10 04:32:56;;;;;;;6.3;2.6;;;;;;;17.29;85.06738;938.08;;;;
2020/08/10 04:35:26;;;;;;;6.5;2.8;;;;;;;17.36;84.67578;938.1094;;;;
2020/08/10 04:38:01;;;;;;;7.1;3.4;;;;;;;17.33;84.7627;938.1638;;;;
2020/08/10 04:40:33;;;;;;;4.8;2.9;;;;;;;17.43;84.51563;938.1722;;;;
2020/08/10 04:43:11;;;;;;;4.5;2.6;;;;;;;17.58;83.54492;938.1495;;;;
2020/08/10 04:45:44;;;;;;;3.4;2.1;;;;;;;17.6;83.33984;938.2175;;;;
2020/08/10 04:48:16;;;;;;;5.4;2.4;;;;;;;17.61;83.16895;938.2406;;;;
2020/08/10 04:50:46;;;;;;;4.4;2.6;;;;;;;17.64;83.10449;938.1856;;;;
2020/08/10 04:53:11;;;;;;;7.1;3.7;;;;;;;17.66;83.20117;938.2274;;;;
2020/08/10 04:55:36;;;;;;;5.4;3;;;;;;;17.61;83.61035;938.2068;;;;
2020/08/10 04:58:11;;;;;;;4.7;3.3;;;;;;;17.54;84.21191;938.2402;;;;
2020/08/10 05:00:48;;;;;;;5.8;3.4;;;;;;;17.52;84.54297;938.2737;;;;
2020/08/10 05:03:18;;;;;;;8.1;3.6;;;;;;;17.45;85.11035;938.2684;;;;
2020/08/10 05:05:44;;;;;;;8.5;3.8;;;;;;;17.41;85.48633;938.2776;;;;
2020/08/10 05:08:14;;;;;;;8.5;4.1;;;;;;;17.5;85.22559;938.257;;;;
2020/08/10 05:10:50;;;;;;;8.6;3.8;;;;;;;17.66;84.57031;938.361;;;;
2020/08/10 05:13:21;;;;;;;6;3.9;;;;;;;17.62;84.02832;938.3117;;;;
2020/08/10 05:15:49;;;;;;;13.2;4.1;;;;;;;17.7;84.10156;938.2269;;;;
2020/08/10 05:18:14;;;;;;;7.4;3.2;;;;;;;17.9;83.14063;938.3434;;;;
2020/08/10 05:20:41;;;;;;;5;3.2;;;;;;;18.03;82.41016;938.3567;;;;
2020/08/10 05:23:06;;;;;;;7.9;3.6;;;;;;;18.14;81.79492;938.3431;;;;
2020/08/10 05:25:31;;;;;;;8.2;3.4;;;;;;;18.13;81.66309;938.3175;;;;
2020/08/10 05:28:00;;;;;;;14.6;3.1;;;;;;;18.13;81.90723;938.296;;;;
2020/08/10 05:30:35;;;;;;;6.5;3.2;;;;;;;17.9;83.03613;938.3507;;;;
2020/08/10 05:33:02;;;;;;;4.6;2.8;;;;;;;18.26;82.94238;938.2921;;;;
2020/08/10 05:35:29;;;;;;;7.9;3.1;;;;;;;19.62;77.67285;938.282;;;;
2020/08/10 05:37:57;;;;;;;4.2;2.6;;;;;;;21.01;71.69629;938.2316;;;;
2020/08/10 05:40:31;;;;;;;2.7;1.8;;;;;;;22.7;65.35059;938.302;;;;
2020/08/10 05:42:57;;;;;;;2;1.4;;;;;;;23.18;62.68262;938.278;;;;
2020/08/10 05:45:24;;;;;;;4.8;2.7;;;;;;;23.96;61.01465;938.2534;;;;
2020/08/10 05:47:52;;;;;;;1.9;1.7;;;;;;;25.2;56.83984;938.162;;;;
2020/08/10 05:50:23;;;;;;;9.2;1.8;;;;;;;25.9;54.55176;938.1825;;;;
2020/08/10 05:52:50;;;;;;;2.6;1.4;;;;;;;26.45;52.77344;938.2425;;;;
2020/08/10 05:55:23;;;;;;;4.2;2.3;;;;;;;27.05;51.36133;938.1864;;;;
2020/08/10 05:57:48;;;;;;;1.7;1.6;;;;;;;27.45;50.33887;938.2034;;;;
2020/08/10 06:00:36;;;;;;;2.3;1.7;;;;;;;27.88;48.66602;938.149;;;;
2020/08/10 06:03:07;;;;;;;2;1.4;;;;;;;28.43;47.35742;938.0942;;;;
2020/08/10 06:05:36;;;;;;;5.2;1.4;;;;;;;28.9;46.19336;938.0887;;;;
2020/08/10 06:08:02;;;;;;;10.5;2;;;;;;;29.38;46.24219;938.1113;;;;
2020/08/10 06:10:37;;;;;;;3.9;2.2;;;;;;;30.07;43.40137;938.1093;;;;
2020/08/10 06:13:02;;;;;;;2.1;1.3;;;;;;;29.42;44.79199;938.0615;;;;
2020/08/10 06:15:46;;;;;;;1.9;1.5;;;;;;;29.03;44.62305;938.0363;;;;
2020/08/10 06:18:14;;;;;;;3.4;1.5;;;;;;;28.54;46.26367;938.1261;;;;
2020/08/10 06:20:39;;;;;;;1.1;0.9;;;;;;;28.69;45.39844;938.101;;;;
2020/08/10 06:23:04;;;;;;;2.9;1.6;;;;;;;29.65;45.8418;938.0781;;;;
2020/08/10 06:25:38;;;;;;;3;1;;;;;;;29.74;42.46387;938.0439;;;;
2020/08/10 06:28:05;;;;;;;1.9;1.5;;;;;;;29.28;43.40918;938.0506;;;;
2020/08/10 06:30:31;;;;;;;1.5;1.4;;;;;;;29.41;44.17188;938.0684;;;;
2020/08/10 06:33:02;;;;;;;1.4;1.1;;;;;;;30.1;41.78125;938.0806;;;;
2020/08/10 06:35:46;;;;;;;1.9;1.3;;;;;;;30.3;43.8291;938.0688;;;;
2020/08/10 06:38:13;;;;;;;3.5;2;;;;;;;30.51;41.41309;938.0759;;;;
2020/08/10 06:40:45;;;;;;;3;1.5;;;;;;;31.58;41.02051;938.0225;;;;
2020/08/10 06:43:26;;;;;;;2.8;1.4;;;;;;;32.49;39.26758;938.025;;;;
2020/08/10 06:46:09;;;;;;;1.6;1.2;;;;;;;33.67;37.54004;937.9753;;;;
2020/08/10 06:48:42;;;;;;;1.4;1.2;;;;;;;34.01;37.1709;938.0047;;;;
2020/08/10 06:51:09;;;;;;;3.8;1.3;;;;;;;34.49;34.87305;937.9702;;;;
2020/08/10 06:53:34;;;;;;;2.2;1;;;;;;;35.27;33.85742;937.9894;;;;
2020/08/10 06:55:59;;;;;;;2;1.1;;;;;;;34.83;34.94629;937.9805;;;;
2020/08/10 06:58:30;;;;;;;1.9;1;;;;;;;35.13;33.73926;937.9194;;;;
2020/08/10 07:01:07;;;;;;;1.3;0.9;;;;;;;34.9;34.69824;937.9738;;;;
2020/08/10 07:03:32;;;;;;;2.1;1.2;;;;;;;34.69;35.82813;937.9052;;;;
2020/08/10 07:05:58;;;;;;;4.3;1.3;;;;;;;34.92;33.77148;937.9102;;;;
2020/08/10 07:08:23;;;;;;;1.8;1.5;;;;;;;34.68;33.79004;937.8702;;;;
2020/08/10 07:10:55;;;;;;;1.9;1.3;;;;;;;34.16;34.29395;937.843;;;;
2020/08/10 07:13:20;;;;;;;1.9;1.1;;;;;;;34.39;35.22559;937.7899;;;;
2020/08/10 07:15:52;;;;;;;1.2;0.9;;;;;;;35.12;34.3418;937.8453;;;;
2020/08/10 07:18:18;;;;;;;2.8;1.3;;;;;;;35.26;33.32617;937.822;;;;
2020/08/10 07:20:43;;;;;;;2.2;1;;;;;;;35.73;33.6377;937.8083;;;;
2020/08/10 07:23:10;;;;;;;1.4;1;;;;;;;35.25;35.5459;937.8136;;;;
2020/08/10 07:25:36;;;;;;;4.5;1.5;;;;;;;35.71;33.55176;937.7808;;;;
2020/08/10 07:28:01;;;;;;;1.4;1.1;;;;;;;35.55;33.57617;937.7942;;;;
2020/08/10 07:30:31;;;;;;;1.8;1;;;;;;;35.89;33.49219;937.7492;;;;
2020/08/10 07:32:56;;;;;;;1.3;1;;;;;;;36.62;33.26758;937.7054;;;;
2020/08/10 07:35:24;;;;;;;1.3;1;;;;;;;36.33;33.63379;937.7068;;;;
2020/08/10 07:37:52;;;;;;;0.8;0.8;;;;;;;36.22;32.27051;937.6668;;;;
2020/08/10 07:40:19;;;;;;;1;0.9;;;;;;;35.27;33.43555;937.6465;;;;
2020/08/10 07:42:52;;;;;;;2.5;1.2;;;;;;;36.56;30.6123;937.6138;;;;
2020/08/10 07:45:30;;;;;;;1.3;1.2;;;;;;;36.78;30.05762;937.614;;;;
2020/08/10 07:47:55;;;;;;;1.4;1;;;;;;;35.74;31.48828;937.579;;;;
2020/08/10 07:50:20;;;;;;;1.8;1.1;;;;;;;37.16;31.22266;937.4966;;;;
2020/08/10 07:52:46;;;;;;;3.3;1.3;;;;;;;37.87;30.67578;937.4817;;;;
2020/08/10 07:55:20;;;;;;;1.1;0.9;;;;;;;38.73;29.06641;937.4326;;;;
2020/08/10 07:57:45;;;;;;;0.9;0.8;;;;;;;39.14;28.11914;937.4785;;;;
2020/08/10 08:00:15;;;;;;;1.3;1.1;;;;;;;39.79;27.59766;937.4034;;;;
2020/08/10 08:02:40;;;;;;;1.4;1.1;;;;;;;39.82;26.90527;937.4091;;;;
2020/08/10 08:05:05;;;;;;;1.2;1;;;;;;;40.33;27.10547;937.3973;;;;
2020/08/10 08:07:30;;;;;;;2.5;1.1;;;;;;;40.59;26.74219;937.342;;;;
2020/08/10 08:09:55;;;;;;;1.7;1.3;;;;;;;41.3;25.27832;937.3345;;;;
2020/08/10 08:12:21;;;;;;;1.7;1.3;;;;;;;41.43;25.34766;937.3156;;;;
2020/08/10 08:14:46;;;;;;;2.1;1.6;;;;;;;42;23.47949;937.3039;;;;
2020/08/10 08:17:11;;;;;;;2.1;1.4;;;;;;;42.45;23.50293;937.28;;;;
2020/08/10 08:19:36;;;;;;;1.4;1.3;;;;;;;42.72;22.68262;937.2482;;;;
2020/08/10 08:22:01;;;;;;;2.2;1.5;;;;;;;42.75;23.21094;937.1926;;;;
2020/08/10 08:24:26;;;;;;;1.4;1.3;;;;;;;41.98;24.44629;937.202;;;;
2020/08/10 08:26:51;;;;;;;1.9;1.3;;;;;;;41.76;25.00977;937.1931;;;;
2020/08/10 08:29:17;;;;;;;1.4;1.2;;;;;;;42.14;24.87207;937.1834;;;;
2020/08/10 08:31:42;;;;;;;1.7;1.4;;;;;;;41.14;23.42383;937.1;;;;
2020/08/10 08:34:07;;;;;;;1.3;1;;;;;;;42.12;24.49023;937.1273;;;;
2020/08/10 08:36:32;;;;;;;1.8;1.3;;;;;;;41.71;23.62402;937.0623;;;;
2020/08/10 08:38:58;;;;;;;2;1.5;;;;;;;42.48;23.54004;937.0577;;;;
2020/08/10 08:41:24;;;;;;;2.4;1.2;;;;;;;43.26;23.38379;937.1149;;;;
2020/08/10 08:43:49;;;;;;;2.6;1.2;;;;;;;43.07;22.41699;937.0229;;;;
2020/08/10 08:46:14;;;;;;;2.6;1.3;;;;;;;42.74;24.53613;937.0229;;;;
2020/08/10 08:48:39;;;;;;;1.6;1.1;;;;;;;41.82;22.36914;936.9758;;;;
2020/08/10 08:51:04;;;;;;;1.4;1.1;;;;;;;41.07;24.10547;936.9705;;;;
2020/08/10 08:53:30;;;;;;;2.2;1.6;;;;;;;41.38;25.01367;936.9529;;;;
2020/08/10 08:55:55;;;;;;;2;1.3;;;;;;;40.87;26.83203;936.9363;;;;
2020/08/10 08:58:20;;;;;;;2.4;1.3;;;;;;;41.38;26.31055;936.8972;;;;
2020/08/10 09:00:45;;;;;;;2.5;1.5;;;;;;;41.23;26.99902;936.8606;;;;
2020/08/10 09:03:11;;;;;;;1.6;1.3;;;;;;;40.4;27.41504;936.8416;;;;
2020/08/10 09:05:36;;;;;;;1.8;1.4;;;;;;;39.81;28.40332;936.8491;;;;
2020/08/10 09:08:01;;;;;;;1.4;1.2;;;;;;;40.45;29.57813;936.8427;;;;
2020/08/10 09:10:28;;;;;;;1.5;1.2;;;;;;;40.64;29.95703;936.8036;;;;
2020/08/10 09:12:53;;;;;;;1.4;1.2;;;;;;;40.99;28.80566;936.8669;;;;
2020/08/10 09:15:22;;;;;;;2.2;1.5;;;;;;;40.35;27.375;936.8719;;;;
2020/08/10 09:17:46;;;;;;;2.3;1.5;;;;;;;40.07;28.33496;936.849;;;;
2020/08/10 09:20:12;;;;;;;0.7;0.7;;;;;;;38.97;32.00195;936.8056;;;;
2020/08/10 09:22:37;;;;;;;1;0.9;;;;;;;38.73;31.20801;936.8553;;;;
2020/08/10 09:25:02;;;;;;;1.4;0.9;;;;;;;38.36;32.88379;936.87;;;;
2020/08/10 09:27:27;;;;;;;1.6;1.2;;;;;;;38.4;32.77734;936.8614;;;;
2020/08/10 09:29:52;;;;;;;1.9;1.5;;;;;;;37.8;33.8877;936.819;;;;
2020/08/10 09:32:17;;;;;;;1.4;1.1;;;;;;;37.06;36.19531;936.8004;;;;
2020/08/10 09:34:43;;;;;;;3;1.4;;;;;;;36.91;35.79688;936.836;;;;
2020/08/10 09:37:09;;;;;;;2;1.2;;;;;;;36.74;37.24902;936.8631;;;;
2020/08/10 09:39:34;;;;;;;1.2;1.1;;;;;;;35.93;38.47559;936.81;;;;
2020/08/10 09:41:59;;;;;;;1.2;1.1;;;;;;;35.94;37.58203;936.8168;;;;
2020/08/10 09:44:24;;;;;;;1.9;1.2;;;;;;;35.35;39.59863;936.9115;;;;
2020/08/10 09:46:54;;;;;;;1.4;1.1;;;;;;;35.29;38.96582;936.8481;;;;
2020/08/10 09:49:19;;;;;;;1;0.9;;;;;;;34.98;38.23926;936.8703;;;;
2020/08/10 09:51:44;;;;;;;1.7;1.3;;;;;;;35.05;39.92285;936.8389;;;;
2020/08/10 09:54:09;;;;;;;1.9;1.6;;;;;;;34.73;39.77344;936.8298;;;;
2020/08/10 09:56:34;;;;;;;1.9;1.4;;;;;;;35.15;38.24121;936.8635;;;;
2020/08/10 09:59:00;;;;;;;3.2;1.1;;;;;;;35.39;39.11914;936.8039;;;;
2020/08/10 10:01:26;;;;;;;1.6;1.2;;;;;;;35.77;38.52344;936.8605;;;;
2020/08/10 10:03:51;;;;;;;2.9;1.5;;;;;;;35.86;38.85742;936.8056;;;;
2020/08/10 10:06:17;;;;;;;2.9;1.4;;;;;;;35.75;38.95605;936.771;;;;
2020/08/10 10:08:43;;;;;;;2.1;1.5;;;;;;;35.9;37.55566;936.7958;;;;
2020/08/10 10:11:10;;;;;;;3;1.8;;;;;;;35.41;40.23047;936.813;;;;
2020/08/10 10:13:35;;;;;;;1.9;1.6;;;;;;;35.57;39.38867;936.7153;;;;
2020/08/10 10:16:06;;;;;;;1.9;1.3;;;;;;;35.79;38.57422;936.7425;;;;
2020/08/10 10:18:31;;;;;;;4.7;2;;;;;;;36.12;37.64551;936.7673;;;;
2020/08/10 10:20:56;;;;;;;4.6;1.6;;;;;;;36.37;37.18262;936.7862;;;;
2020/08/10 10:23:22;;;;;;;2.2;1.5;;;;;;;36.21;37.56836;936.7313;;;;
2020/08/10 10:25:48;;;;;;;1.4;1.2;;;;;;;36.79;36.69531;936.7606;;;;
2020/08/10 10:28:13;;;;;;;2.4;1.5;;;;;;;36.99;36.00879;936.7318;;;;
2020/08/10 10:30:43;;;;;;;2.7;1.2;;;;;;;37.53;35.17773;936.7277;;;;
2020/08/10 10:33:08;;;;;;;1.3;0.9;;;;;;;37.32;35.30664;936.6866;;;;
2020/08/10 10:35:34;;;;;;;1.8;1.2;;;;;;;37.43;34.30957;936.7081;;;;
2020/08/10 10:37:59;;;;;;;1.9;1.3;;;;;;;37.2;33.87988;936.6664;;;;
2020/08/10 10:40:25;;;;;;;6;1.6;;;;;;;37.79;33.77734;936.6697;;;;
2020/08/10 10:42:54;;;;;;;1.5;1;;;;;;;37.86;33.8916;936.6806;;;;
2020/08/10 10:45:19;;;;;;;3.1;1.5;;;;;;;38.13;33.3291;936.6742;;;;
2020/08/10 10:47:44;;;;;;;2;1.5;;;;;;;38.31;33.23242;936.6794;;;;
2020/08/10 10:50:10;;;;;;;1.7;1.1;;;;;;;38.67;32.32227;936.6724;;;;
2020/08/10 10:52:35;;;;;;;1.3;1;;;;;;;38.39;33.12891;936.6355;;;;
2020/08/10 10:55:00;;;;;;;1.3;0.9;;;;;;;38.7;32.00879;936.6459;;;;
2020/08/10 10:57:25;;;;;;;1.9;1.4;;;;;;;38.29;31.09277;936.6382;;;;
2020/08/10 10:59:50;;;;;;;1.3;1.2;;;;;;;38.16;31.50977;936.6206;;;;
2020/08/10 11:02:16;;;;;;;4.4;1.6;;;;;;;38.31;33.20801;936.6367;;;;
2020/08/10 11:04:41;;;;;;;3.1;1.4;;;;;;;38.44;33.15723;936.6951;;;;
2020/08/10 11:07:06;;;;;;;2.5;1.4;;;;;;;38.58;32.07227;936.7012;;;;
2020/08/10 11:09:32;;;;;;;1.3;0.9;;;;;;;39.02;31.42188;936.6693;;;;
2020/08/10 11:11:57;;;;;;;1.5;1.2;;;;;;;38.99;32.18652;936.6514;;;;
2020/08/10 11:14:22;;;;;;;1.6;1.3;;;;;;;39.09;32.99609;936.6752;;;;
2020/08/10 11:16:47;;;;;;;1.5;1.3;;;;;;;38.78;32.08691;936.7012;;;;
2020/08/10 11:19:13;;;;;;;1.8;1.5;;;;;;;38.58;32.91211;936.7434;;;;
2020/08/10 11:21:40;;;;;;;1.3;1.2;;;;;;;38.17;33.34375;936.69;;;;
2020/08/10 11:24:05;;;;;;;1.8;1.3;;;;;;;37.88;34.68262;936.642;;;;
2020/08/10 11:26:30;;;;;;;2.1;1.3;;;;;;;37.67;34.92188;936.6934;;;;
2020/08/10 11:28:55;;;;;;;1.5;1.1;;;;;;;37.72;32.41309;936.7115;;;;
2020/08/10 11:31:24;;;;;;;1.2;1.1;;;;;;;37.52;33.92676;936.6761;;;;
2020/08/10 11:33:52;;;;;;;2.8;1.6;;;;;;;37.14;34.74805;936.6962;;;;
2020/08/10 11:36:17;;;;;;;2.9;1.7;;;;;;;37.23;33.91797;936.6529;;;;
2020/08/10 11:38:42;;;;;;;2.6;1.2;;;;;;;37.18;34.33887;936.6136;;;;
2020/08/10 11:41:16;;;;;;;2.8;1.7;;;;;;;36.84;35.08887;936.5858;;;;
2020/08/10 11:43:42;;;;;;;1.9;1.3;;;;;;;36.6;36.49902;936.5982;;;;
2020/08/10 11:46:09;;;;;;;1.5;1.3;;;;;;;36.27;35.52832;936.5809;;;;
2020/08/10 11:48:36;;;;;;;3;1.8;;;;;;;35.66;37.24609;936.6022;;;;
2020/08/10 11:51:08;;;;;;;2;1.3;;;;;;;35.08;37.24707;936.6347;;;;
2020/08/10 11:53:33;;;;;;;2.3;1.2;;;;;;;34.98;37.38379;936.5928;;;;
2020/08/10 11:55:58;;;;;;;2.4;1.6;;;;;;;34.93;37.45117;936.5553;;;;
2020/08/10 11:58:24;;;;;;;2.4;1.5;;;;;;;34.94;39.3457;936.5616;;;;
2020/08/10 12:00:51;;;;;;;1.8;1.1;;;;;;;34.72;39.50781;936.5705;;;;
2020/08/10 12:03:16;;;;;;;3.5;1.4;;;;;;;34.46;40.11133;936.527;;;;
2020/08/10 12:05:47;;;;;;;2.2;1.7;;;;;;;34.27;39.6377;936.5589;;;;
2020/08/10 12:08:12;;;;;;;2.5;1.6;;;;;;;34.07;40.52246;936.5076;;;;
2020/08/10 12:10:51;;;;;;;3;1.4;;;;;;;34.16;41.72363;936.4872;;;;
2020/08/10 12:13:16;;;;;;;2.9;1.3;;;;;;;34.3;41.89258;936.4889;;;;
2020/08/10 12:15:42;;;;;;;1.5;1;;;;;;;34.32;41.40137;936.4669;;;;
2020/08/10 12:18:07;;;;;;;1.6;1.4;;;;;;;33.89;42.07129;936.5081;;;;
2020/08/10 12:20:35;;;;;;;2.2;1.3;;;;;;;33.7;42.47559;936.4805;;;;
2020/08/10 12:23:00;;;;;;;1.3;1.2;;;;;;;33.71;44.05176;936.4813;;;;
2020/08/10 12:25:26;;;;;;;1.9;1.5;;;;;;;33.4;43.05957;936.4625;;;;
2020/08/10 12:27:51;;;;;;;2.7;1.5;;;;;;;33.11;42.81641;936.4171;;;;
2020/08/10 12:30:18;;;;;;;1.6;1;;;;;;;33.1;44.02832;936.4661;;;;
2020/08/10 12:32:45;;;;;;;1.6;1.3;;;;;;;33.27;43.14453;936.4056;;;;
2020/08/10 12:35:16;;;;;;;1.9;1.3;;;;;;;33.43;43.55566;936.4494;;;;
2020/08/10 12:37:43;;;;;;;1.4;1.1;;;;;;;33.49;43.26074;936.4754;;;;
2020/08/10 12:40:13;;;;;;;1.2;1.1;;;;;;;33.41;44.80371;936.3879;;;;
2020/08/10 12:42:38;;;;;;;1.9;1.3;;;;;;;33.34;46.24023;936.4054;;;;
2020/08/10 12:45:05;;;;;;;1.8;1.2;;;;;;;33.36;44.64355;936.4037;;;;
2020/08/10 12:47:35;;;;;;;14.1;1.8;;;;;;;33.27;42.53223;936.3742;;;;
2020/08/10 12:50:00;;;;;;;1.6;1.3;;;;;;;33.21;44.07617;936.3597;;;;
2020/08/10 12:52:25;;;;;;;3.2;1.3;;;;;;;33.24;43.60938;936.3812;;;;
2020/08/10 12:54:50;;;;;;;1.1;1;;;;;;;33.17;43.65137;936.2991;;;;
2020/08/10 12:57:15;;;;;;;2;1.3;;;;;;;33.15;44.99512;936.3453;;;;
2020/08/10 12:59:40;;;;;;;1.7;1;;;;;;;33;44.29492;936.28;;;;
2020/08/10 13:02:12;;;;;;;1.5;1.2;;;;;;;33.06;45.38281;936.365;;;;
2020/08/10 13:04:37;;;;;;;1.9;1.6;;;;;;;32.87;44.42676;936.3401;;;;
2020/08/10 13:07:02;;;;;;;1.8;1.3;;;;;;;32.92;43.62793;936.3522;;;;
2020/08/10 13:09:27;;;;;;;3.2;1.3;;;;;;;32.66;44.03418;936.3201;;;;
2020/08/10 13:11:58;;;;;;;1.8;1.2;;;;;;;32.97;44.17285;936.3348;;;;
2020/08/10 13:14:24;;;;;;;1.2;1.1;;;;;;;32.99;44.01855;936.2969;;;;
2020/08/10 13:16:49;;;;;;;2.2;1.5;;;;;;;32.91;43.43359;936.3276;;;;
2020/08/10 13:20:10;;;;;;;1.9;1.4;;;;;;;32.86;44.16113;936.3268;;;;
2020/08/10 13:21:40;;;;;;;1.7;1.2;;;;;;;32.7;44.27832;936.3032;;;;
2020/08/10 13:24:07;;;;;;;5.5;2;;;;;;;32.75;45.31543;936.2979;;;;
2020/08/10 13:26:32;;;;;;;7.8;1.4;;;;;;;32.44;43.98926;936.2841;;;;
2020/08/10 13:28:58;;;;;;;1.4;1.1;;;;;;;32.36;44.76074;936.2825;;;;
2020/08/10 13:31:23;;;;;;;1.4;1.3;;;;;;;31.96;44.26563;936.2584;;;;
2020/08/10 13:33:50;;;;;;;1.4;1;;;;;;;32.03;45.14844;936.2136;;;;
2020/08/10 13:36:16;;;;;;;1.9;1.4;;;;;;;31.94;45.35449;936.2233;;;;
2020/08/10 13:38:41;;;;;;;1.4;1.3;;;;;;;32.18;45.77441;936.2034;;;;
2020/08/10 13:41:18;;;;;;;2.2;1.5;;;;;;;32.04;45.86816;936.1663;;;;
2020/08/10 13:43:45;;;;;;;2.1;1.4;;;;;;;32.36;46.83594;936.0966;;;;
2020/08/10 13:46:11;;;;;;;3.2;1.3;;;;;;;32.33;45.86133;936.1343;;;;
2020/08/10 13:48:38;;;;;;;1.1;1;;;;;;;32.5;46.44336;936.1199;;;;
2020/08/10 13:51:03;;;;;;;3.3;1.1;;;;;;;32.62;46.69434;936.14;;;;
2020/08/10 13:53:28;;;;;;;1.9;1.1;;;;;;;32.61;43.9082;936.1325;;;;
2020/08/10 13:55:54;;;;;;;1.8;1.3;;;;;;;32.41;43.89063;936.0569;;;;
2020/08/10 13:58:19;;;;;;;1.6;1.4;;;;;;;32.63;45.00293;936.0859;;;;
2020/08/10 14:00:49;;;;;;;1.2;1.1;;;;;;;32.65;44.08203;936.0637;;;;
2020/08/10 14:03:14;;;;;;;2.3;1.2;;;;;;;32.79;44.44238;936.0383;;;;
2020/08/10 14:05:39;;;;;;;2.2;1.2;;;;;;;32.65;44.50098;936.0945;;;;
2020/08/10 14:08:05;;;;;;;6.6;1.7;;;;;;;32.52;43.39648;936.0692;;;;
2020/08/10 14:10:34;;;;;;;3.3;1.2;;;;;;;32.64;42.75977;936.046;;;;
2020/08/10 14:12:59;;;;;;;1.2;1.1;;;;;;;32.44;43.17285;935.9728;;;;
2020/08/10 14:15:29;;;;;;;1.7;1.2;;;;;;;32.06;43.67676;935.9465;;;;
2020/08/10 14:17:54;;;;;;;2;1.4;;;;;;;32.03;43.94922;935.918;;;;
2020/08/10 14:20:25;;;;;;;1.9;1.3;;;;;;;31.89;44.75;935.9363;;;;
2020/08/10 14:22:50;;;;;;;1.4;1;;;;;;;31.94;43.68945;935.9736;;;;
2020/08/10 14:25:19;;;;;;;1.2;1.1;;;;;;;32.04;46.03613;935.9461;;;;
2020/08/10 14:27:44;;;;;;;2.1;1.4;;;;;;;32.18;45.51074;935.9601;;;;
2020/08/10 14:30:10;;;;;;;8.6;1.5;;;;;;;31.85;45.05762;935.9266;;;;